Airfield :







YOU CAN JOIN US ON...

 
LOGIN :

Register | Disclaimer

   EN    FR    IT 

 









Legend :    VFR   Marginal VFR   IFR   Intensive IFR   Very Intensive IFR
Visi :
Ceiling :
>= 8 km
>= 3000ft
5 to 8 km
1000 to 3000 ft
1500m to 5 km
500 to 1000 ft
800 to 1500m
200 to 500 ft
< 800m
< 200 ft
Symbols :   Thunderstorms  Fog  Heavy snow  Heavy precipitations  Wind > 20 kt






- Airport Elevation : 270 ft
- IATA code : YMX


CYMX - Montreal International Mirabel

CURRENT METAR :
  • 161200Z 24005KT 210V270 45SM FEW020 FEW250 M13/M16 A3020 RMK SC1CI1 SC TR SLP234

EXPIRED METARs :
  • 161100Z 25006KT 220V280 25SM SKC M13/M16 A3018 RMK SLP229
  • 161000Z 23005KT 210V280 25SM SKC M13/M16 A3017 RMK SLP225

TAF TAF CYMX
Valid from the 16 at 12:00 until the 17 at 12:00 UTC


161138Z 1612/1712 25006KT P6SM SKC
FM161700 24008KT P6SM SCT030
FM162200 VRB03KT P6SM BKN030
TEMPO 1622/1706 BKN020
FM170600 VRB03KT P6SM FEW020 RMK NXT FCST BY 161800Z



MET'MAP, your aeronautical weather chart ! - Copyright ORBIFLY December 2007 - Disclaimer

ORBIFLY MET'MAP TEAM :

Programming & Development : Alexandra Zaïnal
Concept & original design : Baudouin d'Aumeries
Assistance for programming : Marc-Olivier Méhu
Technical & hardware support : Manuel Goepfert

Contact : metmap@orbifly.com




SOURCES & CREDITS :

   NOAA